Wetterdaten: aktuell Samstag, 29.01.2022 11:40
Datum Zeit Temperatur Bodentemp. Luftfeuchte Luftdruck Niederschlag Windgeschw. Windrichtung Windrichtung Sonnenschein Nieder.dauer Evapotrans. Solarstrahl. Taupunkt Windchill Windböen
29.01.2022 11:40 7,9 °C 7,8 °C 100 % 1010,0 hPa 0,2 l/m² 17,9 km/h (3 Bft) SW 225 ° 0 min 1 min 0 mm 32 W/m² 7,9 °C 5,0 °C 26,9 km/h (4 Bft)
29.01.2022 10:40 7,8 °C 7,2 °C 100 % 1011,4 hPa 0,0 l/m² 14,4 km/h (3 Bft) W 270 ° 0 min 0 min 0 mm 28 W/m² 7,8 °C 5,3 °C 17,9 km/h (3 Bft)
29.01.2022 09:40 7,6 °C 7,2 °C 100 % 1012,4 hPa 0,2 l/m² 12,6 km/h (3 Bft) SW 225 ° 0 min 3 min 0 mm 16 W/m² 7,6 °C 5,3 °C 28,7 km/h (4 Bft)
29.01.2022 08:40 7,5 °C 7,2 °C 100 % 1013,3 hPa 0,0 l/m² 16,1 km/h (3 Bft) W 270 ° 0 min 11 min 0 mm 5 W/m² 7,5 °C 4,7 °C 25,1 km/h (4 Bft)
29.01.2022 07:40 7,3 °C 6,7 °C 100 % 1013,1 hPa 0,4 l/m² 12,6 km/h (3 Bft) W 270 ° 0 min 60 min 0 mm 0 W/m² 7,3 °C 4,9 °C 19,7 km/h (3 Bft)
29.01.2022 06:40 6,8 °C 6,1 °C 100 % 1014,5 hPa 0,6 l/m² 14,4 km/h (3 Bft) W-SW 247 ° 0 min 60 min 0 mm 0 W/m² 6,8 °C 4,1 °C 34,1 km/h (5 Bft)
29.01.2022 05:40 6,1 °C 5,6 °C 100 % 1015,5 hPa 0,4 l/m² 16,1 km/h (3 Bft) S-SW 202 ° 0 min 60 min 0 mm 0 W/m² 6,1 °C 2,9 °C 26,9 km/h (4 Bft)
29.01.2022 04:40 5,5 °C 5,0 °C 100 % 1016,5 hPa 0,8 l/m² 10,8 km/h (2 Bft) SW 225 ° 0 min 60 min 0 mm 0 W/m² 5,5 °C 3,1 °C 17,9 km/h (3 Bft)
29.01.2022 03:40 5,1 °C 4,4 °C 99 % 1017,9 hPa 0,8 l/m² 14,4 km/h (3 Bft) SW 225 ° 0 min 60 min 0 mm 0 W/m² 5,0 °C 2,0 °C 34,1 km/h (5 Bft)
29.01.2022 02:40 4,7 °C 3,9 °C 96 % 1019,8 hPa 0,4 l/m² 10,8 km/h (2 Bft) SW 225 ° 0 min 60 min 0 mm 0 W/m² 4,1 °C 2,1 °C 17,9 km/h (3 Bft)
29.01.2022 01:40 4,7 °C 3,9 °C 90 % 1020,7 hPa 0,2 l/m² 10,8 km/h (2 Bft) SW 225 ° 0 min 35 min 0 mm 0 W/m² 3,2 °C 2,1 °C 17,9 km/h (3 Bft)
29.01.2022 00:40 4,8 °C 4,4 °C 84 % 1022,0 hPa 0,0 l/m² 19,7 km/h (3 Bft) SW 225 ° 0 min 0 min 0 mm 0 W/m² 2,3 °C 0,9 °C 32,3 km/h (5 Bft)
28.01.2022 23:40 4,4 °C 3,9 °C 83 % 1023,4 hPa 0,0 l/m² 12,6 km/h (3 Bft) S-SW 202 ° 0 min 0 min 0 mm 0 W/m² 1,8 °C 1,4 °C 17,9 km/h (3 Bft)
28.01.2022 22:40 4,0 °C 3,9 °C 82 % 1024,9 hPa 0,0 l/m² 5,4 km/h (1 Bft) S 180 ° 0 min 0 min 0 mm 0 W/m² 1,2 °C 2,8 °C 12,6 km/h (3 Bft)
28.01.2022 21:40 3,7 °C 3,3 °C 83 % 1026,0 hPa 0,0 l/m² 10,8 km/h (2 Bft) SW 225 ° 0 min 0 min 0 mm 0 W/m² 1,1 °C 0,9 °C 16,1 km/h (3 Bft)
28.01.2022 20:40 4,1 °C 3,3 °C 81 % 1026,5 hPa 0,0 l/m² 7,2 km/h (2 Bft) SW 225 ° 0 min 0 min 0 mm 0 W/m² 1,1 °C 2,3 °C 10,8 km/h (2 Bft)
28.01.2022 19:40 4,6 °C 3,9 °C 79 % 1027,4 hPa 0,0 l/m² 9,0 km/h (2 Bft) SW 225 ° 0 min 0 min 0 mm 0 W/m² 1,3 °C 2,4 °C 21,5 km/h (4 Bft)
28.01.2022 18:40 4,7 °C 4,4 °C 78 % 1028,1 hPa 0,0 l/m² 3,6 km/h (1 Bft) SW 225 ° 0 min 0 min 0 mm 0 W/m² 1,2 °C 4,7 °C 9,0 km/h (2 Bft)
28.01.2022 17:40 4,6 °C 3,9 °C 79 % 1028,5 hPa 0,0 l/m² 7,2 km/h (2 Bft) W-SW 247 ° 0 min 0 min 0 mm 0 W/m² 1,3 °C 2,9 °C 10,8 km/h (2 Bft)
28.01.2022 16:40 4,9 °C 3,9 °C 76 % 1028,4 hPa 0,0 l/m² 5,4 km/h (1 Bft) W 270 ° 40 min 0 min 0 mm 14 W/m² 1,0 °C 3,8 °C 10,8 km/h (2 Bft)
28.01.2022 15:40 5,6 °C 5,0 °C 73 % 1028,1 hPa 0,0 l/m² 9,0 km/h (2 Bft) W-SW 247 ° 36 min 0 min 0 mm 97 W/m² 1,2 °C 3,6 °C 21,5 km/h (4 Bft)
28.01.2022 14:40 6,6 °C 6,1 °C 67 % 1027,7 hPa 0,0 l/m² 7,2 km/h (2 Bft) W-SW 247 ° 60 min 0 min 0 mm 158 W/m² 0,9 °C 5,2 °C 17,9 km/h (3 Bft)
28.01.2022 13:40 6,6 °C 6,1 °C 64 % 1027,6 hPa 0,0 l/m² 10,8 km/h (2 Bft) NW 315 ° 60 min 0 min 0 mm 279 W/m² 0,3 °C 4,4 °C 14,4 km/h (3 Bft)
28.01.2022 12:40 6,1 °C 5,6 °C 66 % 1027,1 hPa 0,0 l/m² 10,8 km/h (2 Bft) W-NW 292 ° 40 min 0 min 0 mm 255 W/m² 0,2 °C 3,8 °C 14,4 km/h (3 Bft)
28.01.2022 12:00 5,7 °C 5,6 °C 69 % 1027,0 hPa 0,0 l/m² 5,4 km/h (1 Bft) W-NW 292 ° 0 min 0 min 0 mm 295 W/m² 0,5 °C 4,7 °C 9,0 km/h (2 Bft)
_ Min-Zeit 21:25 21:01 14:16 11:30 - 17:02 - - - - - - 13:05 22:18 17:07
Minimum _ 3,7 °C 2,8 °C 63 % 1010,0 hPa - 0,0 km/h (0 Bft) - - - - - - 0,0 °C 0,4 °C 0,0 km/h (0 Bft)
_ Max-Zeit 10:58 11:34 04:05 16:45 01:35 07:36 - - 12:00 01:06 13:00 12:32 10:58 11:01 08:33
Maximum _ 7,9 °C 7,8 °C 100 % 1028,5 hPa 0,2 l/m² 23,3 km/h
SW (4 Bft)
- - 1 min 1 min 0 mm 325 W/m² 7,9 °C 6,7 °C 50,2 km/h
SW (7 Bft)
Durchschnitt _ 5,6 °C 5,1 °C 85 % 1021,9 hPa #4,0 l/m² 10,1 km/h (2 Bft) SW - #0 min. #6:50 h #0,075 mm 19 W/m² 3,1 °C 3,6 °C 17,6 km/h (3 Bft)